Time;durP1;ratioP1;P1;durP2;ratioP2;P2;SDS_P1;SDS_P2;PMS_P1;PMS_P2;Temp;Humidity;BMP_temperature;BMP_pressure;BME280_temperature;BME280_humidity;BME280_pressure;Samples;Min_cycle;Max_cycle;Signal;HPM_P1;HPM_P2
2023/12/17 00:01:06;;;;;;;13.60;4.57;;;;;;;;;;4920109;29;20054;-73
2023/12/17 00:03:32;;;;;;;15.95;4.85;;;;;;;;;;4922723;29;20051;-73
2023/12/17 00:05:58;;;;;;;15.40;4.40;;;;;;;;;;4938966;29;20090;-73
2023/12/17 00:08:24;;;;;;;12.45;4.30;;;;;;;;;;4922498;29;20046;-73
2023/12/17 00:10:50;;;;;;;16.13;4.63;;;;;;;;;;4907178;28;20047;-73
2023/12/17 00:13:17;;;;;;;11.80;4.30;;;;;;;;;;4929737;29;20440;-73
2023/12/17 00:15:43;;;;;;;11.07;4.18;;;;;;;;;;4937805;29;20039;-73
2023/12/17 00:18:09;;;;;;;11.73;4.18;;;;;;;;;;4938802;29;20113;-73
2023/12/17 00:20:35;;;;;;;11.93;4.63;;;;;;;;;;4935936;29;20039;-73
2023/12/17 00:23:04;;;;;;;12.75;4.38;;;;;;;;;;4938136;29;20031;-73
2023/12/17 00:25:30;;;;;;;8.43;4.00;;;;;;;;;;4924918;29;20058;-73
2023/12/17 00:27:56;;;;;;;10.00;4.47;;;;;;;;;;4919420;29;20043;-73
2023/12/17 00:30:22;;;;;;;14.23;4.40;;;;;;;;;;4914797;29;20523;-73
2023/12/17 00:32:48;;;;;;;9.65;4.38;;;;;;;;;;4938347;29;20090;-73
2023/12/17 00:35:14;;;;;;;9.07;3.80;;;;;;;;;;4934587;29;20051;-73
2023/12/17 00:37:40;;;;;;;8.48;3.75;;;;;;;;;;4938016;29;20098;-73
2023/12/17 00:40:07;;;;;;;12.02;4.00;;;;;;;;;;4898125;28;20045;-73
2023/12/17 00:42:33;;;;;;;12.07;4.22;;;;;;;;;;4938219;29;20492;-74
2023/12/17 00:44:59;;;;;;;11.07;4.10;;;;;;;;;;4932596;29;20031;-74
2023/12/17 00:47:25;;;;;;;9.32;3.83;;;;;;;;;;4938207;29;20467;-73
2023/12/17 00:49:52;;;;;;;10.90;4.30;;;;;;;;;;4931573;29;20103;-73
2023/12/17 00:52:22;;;;;;;11.18;3.90;;;;;;;;;;4938110;29;20047;-73
2023/12/17 00:54:48;;;;;;;13.05;3.63;;;;;;;;;;4937425;28;20050;-73
2023/12/17 00:57:14;;;;;;;9.40;3.92;;;;;;;;;;4934536;29;20039;-73
2023/12/17 00:59:40;;;;;;;17.88;4.53;;;;;;;;;;4937952;29;20130;-73
2023/12/17 01:02:07;;;;;;;10.63;3.85;;;;;;;;;;4904700;29;20040;-74
2023/12/17 01:04:33;;;;;;;9.30;4.13;;;;;;;;;;4884445;29;20056;-73
2023/12/17 01:06:59;;;;;;;9.20;3.75;;;;;;;;;;4930489;29;20341;-73
2023/12/17 01:09:25;;;;;;;8.15;3.42;;;;;;;;;;4934031;29;20043;-73
2023/12/17 01:11:51;;;;;;;9.18;4.05;;;;;;;;;;4917781;29;20052;-73
2023/12/17 01:14:18;;;;;;;9.98;3.63;;;;;;;;;;4929564;29;20040;-73
2023/12/17 01:16:44;;;;;;;9.68;3.72;;;;;;;;;;4915706;29;20091;-74
2023/12/17 01:19:10;;;;;;;11.20;3.83;;;;;;;;;;4915597;29;20040;-73
2023/12/17 01:21:37;;;;;;;10.18;4.40;;;;;;;;;;4923110;29;20043;-73
2023/12/17 01:24:03;;;;;;;8.77;3.85;;;;;;;;;;4918351;29;20043;-73
2023/12/17 01:26:29;;;;;;;11.75;4.03;;;;;;;;;;4933985;29;20538;-73
2023/12/17 01:28:58;;;;;;;8.85;3.53;;;;;;;;;;4918602;29;20094;-73
2023/12/17 01:31:25;;;;;;;9.18;3.80;;;;;;;;;;4933892;29;20043;-74
2023/12/17 01:33:51;;;;;;;8.20;3.85;;;;;;;;;;4934335;29;20423;-73
2023/12/17 01:36:17;;;;;;;12.52;4.00;;;;;;;;;;4919412;29;20091;-74
2023/12/17 01:38:43;;;;;;;11.23;3.55;;;;;;;;;;4906424;29;20127;-73
2023/12/17 01:41:09;;;;;;;9.77;4.45;;;;;;;;;;4915293;29;20047;-73
2023/12/17 01:43:35;;;;;;;17.10;5.55;;;;;;;;;;4917471;29;20035;-73
2023/12/17 01:46:01;;;;;;;11.43;4.28;;;;;;;;;;4934009;29;20039;-73
2023/12/17 01:48:27;;;;;;;10.90;4.05;;;;;;;;;;4918117;29;20079;-73
2023/12/17 01:50:55;;;;;;;14.13;4.60;;;;;;;;;;4932533;29;20051;-73
2023/12/17 01:53:21;;;;;;;10.85;3.85;;;;;;;;;;4911874;29;20095;-73
2023/12/17 01:55:49;;;;;;;8.43;3.47;;;;;;;;;;4916501;29;20052;-73
2023/12/17 01:58:15;;;;;;;11.00;3.90;;;;;;;;;;4907972;29;20036;-73
2023/12/17 02:00:41;;;;;;;12.13;4.30;;;;;;;;;;4916840;29;20051;-73
2023/12/17 02:03:07;;;;;;;8.77;4.00;;;;;;;;;;4922049;29;20055;-74
2023/12/17 02:05:34;;;;;;;9.20;3.65;;;;;;;;;;4907179;29;20048;-73
2023/12/17 02:08:01;;;;;;;9.20;4.05;;;;;;;;;;4918793;29;20051;-73
2023/12/17 02:10:27;;;;;;;9.43;3.75;;;;;;;;;;4933607;29;20122;-73
2023/12/17 02:12:53;;;;;;;11.65;3.70;;;;;;;;;;4917724;29;20085;-73
2023/12/17 02:15:20;;;;;;;7.40;3.75;;;;;;;;;;4921289;29;20048;-73
2023/12/17 02:17:46;;;;;;;9.52;3.88;;;;;;;;;;4916427;29;20127;-73
2023/12/17 02:20:12;;;;;;;10.32;3.97;;;;;;;;;;4933222;29;20130;-73
2023/12/17 02:22:38;;;;;;;13.45;4.00;;;;;;;;;;4937429;29;20054;-73
2023/12/17 02:25:05;;;;;;;15.45;3.80;;;;;;;;;;4938013;29;20046;-73
2023/12/17 02:27:31;;;;;;;9.55;4.35;;;;;;;;;;4921930;29;20121;-73
2023/12/17 02:29:57;;;;;;;11.30;3.70;;;;;;;;;;4921390;29;20051;-73
2023/12/17 02:32:24;;;;;;;7.38;3.55;;;;;;;;;;4937325;29;20373;-73
2023/12/17 02:34:51;;;;;;;12.30;3.88;;;;;;;;;;4934450;29;20086;-74
2023/12/17 02:37:17;;;;;;;4.53;3.40;;;;;;;;;;4937516;29;20063;-73
2023/12/17 02:39:43;;;;;;;13.88;3.92;;;;;;;;;;4936843;29;20040;-73
2023/12/17 02:42:09;;;;;;;15.93;3.80;;;;;;;;;;4921502;29;20055;-73
2023/12/17 02:44:36;;;;;;;7.93;3.72;;;;;;;;;;4936930;29;20040;-73
2023/12/17 02:47:02;;;;;;;9.65;3.80;;;;;;;;;;4921224;29;20388;-73
2023/12/17 02:49:28;;;;;;;10.55;3.63;;;;;;;;;;4950629;28;20050;-73
2023/12/17 02:51:55;;;;;;;12.10;3.83;;;;;;;;;;4921147;29;20043;-73
2023/12/17 02:54:22;;;;;;;9.60;4.05;;;;;;;;;;4930238;29;20044;-73
2023/12/17 02:56:49;;;;;;;5.68;3.47;;;;;;;;;;4918174;29;20488;-73
2023/12/17 02:59:15;;;;;;;6.07;3.60;;;;;;;;;;4918074;29;20052;-73
2023/12/17 03:01:42;;;;;;;14.57;4.18;;;;;;;;;;4917825;29;20047;-73
2023/12/17 03:04:08;;;;;;;10.70;3.70;;;;;;;;;;4931681;29;20458;-73
2023/12/17 03:06:34;;;;;;;8.65;3.72;;;;;;;;;;4937076;29;20089;-74
2023/12/17 03:09:00;;;;;;;12.48;3.63;;;;;;;;;;4936674;29;20047;-73
2023/12/17 03:11:27;;;;;;;5.32;3.25;;;;;;;;;;4936762;29;20075;-73
2023/12/17 03:13:53;;;;;;;8.02;3.35;;;;;;;;;;4935883;29;20048;-73
2023/12/17 03:16:19;;;;;;;9.95;3.50;;;;;;;;;;4936844;29;20138;-73
2023/12/17 03:18:45;;;;;;;10.80;3.67;;;;;;;;;;4916239;29;20100;-73
2023/12/17 03:21:12;;;;;;;4.55;3.70;;;;;;;;;;4901893;29;20047;-74
2023/12/17 03:23:38;;;;;;;7.45;3.38;;;;;;;;;;4918818;29;20048;-72
2023/12/17 03:26:04;;;;;;;8.65;3.72;;;;;;;;;;4925701;29;20043;-71
2023/12/17 03:28:30;;;;;;;10.07;4.10;;;;;;;;;;4933254;29;20032;-71
2023/12/17 03:30:57;;;;;;;9.35;3.90;;;;;;;;;;4901845;29;20056;-72
2023/12/17 03:33:23;;;;;;;7.03;3.70;;;;;;;;;;4917528;29;20206;-72
2023/12/17 03:35:49;;;;;;;8.35;3.55;;;;;;;;;;4920496;29;20373;-72
2023/12/17 03:38:15;;;;;;;8.80;3.47;;;;;;;;;;4918676;29;20180;-72
2023/12/17 03:40:41;;;;;;;12.23;3.70;;;;;;;;;;4887972;29;20497;-72
2023/12/17 03:43:07;;;;;;;8.50;3.78;;;;;;;;;;4921714;29;20090;-72
2023/12/17 03:45:35;;;;;;;7.32;3.65;;;;;;;;;;4928362;29;20051;-72
2023/12/17 03:48:02;;;;;;;12.10;4.00;;;;;;;;;;4934583;29;20426;-72
2023/12/17 03:50:28;;;;;;;12.70;3.83;;;;;;;;;;4935895;29;20137;-72
2023/12/17 03:52:54;;;;;;;15.02;4.40;;;;;;;;;;4936038;29;20050;-71
2023/12/17 03:55:20;;;;;;;12.20;4.13;;;;;;;;;;4919922;29;20130;-72
2023/12/17 03:57:47;;;;;;;6.35;3.63;;;;;;;;;;4935996;29;20079;-72
2023/12/17 04:00:14;;;;;;;10.45;3.67;;;;;;;;;;4927598;29;20036;-72
2023/12/17 04:02:40;;;;;;;10.82;4.22;;;;;;;;;;4920221;29;20082;-72
2023/12/17 04:05:07;;;;;;;9.85;4.45;;;;;;;;;;4938526;29;20043;-72
2023/12/17 04:07:33;;;;;;;15.20;6.18;;;;;;;;;;4927027;29;20401;-72
2023/12/17 04:10:03;;;;;;;12.48;4.40;;;;;;;;;;4909322;29;20039;-72
2023/12/17 04:12:29;;;;;;;8.70;4.05;;;;;;;;;;4938703;29;20121;-71
2023/12/17 04:14:55;;;;;;;15.52;4.82;;;;;;;;;;4936696;29;20049;-71
2023/12/17 04:17:22;;;;;;;9.50;4.22;;;;;;;;;;4919597;29;20040;-72
2023/12/17 04:19:48;;;;;;;9.38;3.78;;;;;;;;;;4936800;29;20046;-72
2023/12/17 04:22:14;;;;;;;8.98;4.60;;;;;;;;;;4938625;29;20039;-72
2023/12/17 04:24:40;;;;;;;8.73;3.70;;;;;;;;;;4955809;29;20095;-72
2023/12/17 04:27:06;;;;;;;12.57;4.20;;;;;;;;;;4920730;29;20039;-72
2023/12/17 04:29:32;;;;;;;8.40;4.20;;;;;;;;;;4919050;29;20039;-72
2023/12/17 04:31:58;;;;;;;14.55;4.32;;;;;;;;;;4937821;29;20039;-72
2023/12/17 04:34:24;;;;;;;15.88;4.78;;;;;;;;;;4937918;29;20126;-72
2023/12/17 04:36:50;;;;;;;12.27;4.22;;;;;;;;;;4916353;29;20046;-72
2023/12/17 04:39:16;;;;;;;7.75;4.53;;;;;;;;;;4936473;29;20055;-72
2023/12/17 04:41:42;;;;;;;10.15;4.25;;;;;;;;;;4938146;28;20051;-72
2023/12/17 04:44:09;;;;;;;12.85;5.13;;;;;;;;;;4922015;29;20054;-72
2023/12/17 04:46:35;;;;;;;7.18;4.10;;;;;;;;;;4929111;29;20050;-72
2023/12/17 04:49:01;;;;;;;8.65;4.53;;;;;;;;;;4903735;29;20437;-73
2023/12/17 04:51:27;;;;;;;9.98;4.40;;;;;;;;;;4925995;29;20066;-72
2023/12/17 04:53:53;;;;;;;11.10;4.20;;;;;;;;;;4937809;29;20039;-72
2023/12/17 04:56:21;;;;;;;9.93;4.50;;;;;;;;;;4905301;29;20139;-72
2023/12/17 04:58:47;;;;;;;17.80;4.85;;;;;;;;;;4937736;29;20171;-72
2023/12/17 05:01:13;;;;;;;11.90;5.18;;;;;;;;;;4937596;29;20053;-72
2023/12/17 05:03:39;;;;;;;9.88;4.50;;;;;;;;;;4937735;29;20055;-72
2023/12/17 05:06:06;;;;;;;8.25;4.28;;;;;;;;;;4934022;29;20078;-72
2023/12/17 05:08:33;;;;;;;7.38;4.38;;;;;;;;;;4937644;29;20043;-72
2023/12/17 05:10:59;;;;;;;7.22;4.30;;;;;;;;;;4926687;29;20050;-71
2023/12/17 05:13:25;;;;;;;11.27;4.50;;;;;;;;;;4935936;29;20038;-72
2023/12/17 05:15:51;;;;;;;10.45;4.95;;;;;;;;;;4922088;29;20480;-72
2023/12/17 05:18:17;;;;;;;15.07;5.63;;;;;;;;;;4921558;29;20403;-71
2023/12/17 05:20:45;;;;;;;17.00;5.40;;;;;;;;;;4928829;29;20060;-71
2023/12/17 05:23:12;;;;;;;11.70;5.32;;;;;;;;;;4930828;28;20043;-72
2023/12/17 05:25:39;;;;;;;11.00;5.10;;;;;;;;;;4922057;28;20047;-72
2023/12/17 05:28:07;;;;;;;11.40;5.45;;;;;;;;;;4928596;29;20384;-71
2023/12/17 05:30:33;;;;;;;11.90;5.85;;;;;;;;;;4918129;29;20087;-72
2023/12/17 05:32:59;;;;;;;12.80;5.50;;;;;;;;;;4926304;29;20070;-72
2023/12/17 05:35:25;;;;;;;11.50;5.70;;;;;;;;;;4937606;29;20043;-72
2023/12/17 05:37:51;;;;;;;15.05;6.53;;;;;;;;;;4931508;29;20099;-72
2023/12/17 05:40:17;;;;;;;11.48;5.70;;;;;;;;;;4902784;29;20047;-71
2023/12/17 05:42:43;;;;;;;10.50;6.15;;;;;;;;;;4922570;29;20039;-71
2023/12/17 05:45:09;;;;;;;14.52;6.07;;;;;;;;;;4937733;29;20040;-72
2023/12/17 05:47:35;;;;;;;19.00;6.68;;;;;;;;;;4934920;29;20056;-72
2023/12/17 05:50:03;;;;;;;15.25;6.95;;;;;;;;;;4937529;29;20566;-71
2023/12/17 05:52:29;;;;;;;9.63;6.53;;;;;;;;;;4921773;29;20340;-72
2023/12/17 05:54:55;;;;;;;13.38;7.00;;;;;;;;;;4935451;29;20054;-72
2023/12/17 05:57:21;;;;;;;14.88;6.90;;;;;;;;;;4941277;29;20051;-72
2023/12/17 05:59:47;;;;;;;12.45;6.60;;;;;;;;;;4924947;29;20043;-72
2023/12/17 06:02:13;;;;;;;12.15;6.97;;;;;;;;;;4932959;29;20051;-72
2023/12/17 06:04:40;;;;;;;15.68;7.05;;;;;;;;;;4935523;29;20492;-72
2023/12/17 06:07:06;;;;;;;13.32;6.70;;;;;;;;;;4935043;29;20055;-72
2023/12/17 06:09:32;;;;;;;11.07;6.50;;;;;;;;;;4914431;29;20075;-72
2023/12/17 06:11:58;;;;;;;14.60;7.05;;;;;;;;;;4940732;29;20047;-72
2023/12/17 06:14:25;;;;;;;14.20;7.50;;;;;;;;;;4931980;29;20043;-72
2023/12/17 06:16:51;;;;;;;14.80;6.68;;;;;;;;;;4921894;29;20043;-71
2023/12/17 06:19:17;;;;;;;17.63;7.47;;;;;;;;;;4929924;29;20031;-72
2023/12/17 06:21:43;;;;;;;11.48;6.82;;;;;;;;;;4940524;29;20043;-72
2023/12/17 06:24:09;;;;;;;14.00;6.85;;;;;;;;;;4940445;29;20039;-71
2023/12/17 06:26:36;;;;;;;12.88;6.78;;;;;;;;;;4941062;29;20053;-72
2023/12/17 06:29:02;;;;;;;19.13;7.72;;;;;;;;;;4938370;29;20097;-72
2023/12/17 06:31:29;;;;;;;18.10;8.00;;;;;;;;;;4927149;29;20131;-72
2023/12/17 06:33:55;;;;;;;18.90;8.77;;;;;;;;;;4929811;29;20480;-73
2023/12/17 06:36:21;;;;;;;18.05;8.75;;;;;;;;;;4937094;29;20043;-74
2023/12/17 06:38:47;;;;;;;17.75;8.30;;;;;;;;;;4928257;29;20095;-74
2023/12/17 06:41:13;;;;;;;17.63;8.15;;;;;;;;;;4937231;29;20043;-73
2023/12/17 06:43:40;;;;;;;22.42;8.18;;;;;;;;;;4952232;28;20046;-73
2023/12/17 06:46:07;;;;;;;20.73;7.53;;;;;;;;;;4936773;29;20124;-73
2023/12/17 06:48:36;;;;;;;13.70;6.57;;;;;;;;;;4940420;29;20150;-73
2023/12/17 06:51:03;;;;;;;14.52;6.75;;;;;;;;;;4938309;28;20464;-74
2023/12/17 06:53:29;;;;;;;17.23;7.25;;;;;;;;;;4907357;29;20130;-73
2023/12/17 06:55:56;;;;;;;20.73;7.93;;;;;;;;;;4938240;29;20106;-74
2023/12/17 06:58:22;;;;;;;20.40;6.57;;;;;;;;;;4940215;29;20073;-77
2023/12/17 07:00:48;;;;;;;18.23;7.30;;;;;;;;;;4937999;29;20127;-75
2023/12/17 07:03:18;;;;;;;14.20;6.85;;;;;;;;;;4939576;29;20043;-74
2023/12/17 07:05:45;;;;;;;15.45;6.47;;;;;;;;;;4931451;29;20087;-74
2023/12/17 07:08:11;;;;;;;13.52;6.00;;;;;;;;;;4923317;29;20046;-73
2023/12/17 07:10:37;;;;;;;23.02;7.68;;;;;;;;;;4937860;29;20050;-73
2023/12/17 07:13:06;;;;;;;16.33;6.60;;;;;;;;;;4940240;29;20043;-73
2023/12/17 07:15:32;;;;;;;16.35;7.18;;;;;;;;;;4939244;29;20042;-74
2023/12/17 07:17:58;;;;;;;17.58;6.28;;;;;;;;;;4932223;28;20039;-74
2023/12/17 07:20:24;;;;;;;19.98;6.53;;;;;;;;;;4928845;29;20039;-74
2023/12/17 07:22:50;;;;;;;20.20;7.43;;;;;;;;;;4915191;29;20089;-74
2023/12/17 07:25:17;;;;;;;21.73;6.00;;;;;;;;;;4935377;29;20048;-73
2023/12/17 07:27:43;;;;;;;15.60;6.53;;;;;;;;;;4921716;29;20047;-74
2023/12/17 07:30:10;;;;;;;19.60;6.60;;;;;;;;;;4922662;29;20097;-74
2023/12/17 07:32:36;;;;;;;17.85;6.22;;;;;;;;;;4934036;29;20070;-74
2023/12/17 07:35:03;;;;;;;19.25;6.15;;;;;;;;;;4927769;29;20039;-74
2023/12/17 07:37:29;;;;;;;20.15;6.05;;;;;;;;;;4934906;29;20044;-74
2023/12/17 07:39:56;;;;;;;17.67;6.25;;;;;;;;;;4929734;29;20050;-73
2023/12/17 07:42:23;;;;;;;18.00;6.22;;;;;;;;;;4912436;29;20044;-74
2023/12/17 07:44:49;;;;;;;18.95;6.47;;;;;;;;;;4914851;29;20042;-74
2023/12/17 07:47:15;;;;;;;16.08;7.65;;;;;;;;;;4919743;29;20079;-74
2023/12/17 07:49:41;;;;;;;23.08;8.70;;;;;;;;;;4925331;29;20054;-74
2023/12/17 07:52:07;;;;;;;22.67;8.90;;;;;;;;;;4932969;29;20499;-74
2023/12/17 07:54:33;;;;;;;20.92;8.93;;;;;;;;;;4929150;29;20049;-74
2023/12/17 07:57:00;;;;;;;22.70;9.40;;;;;;;;;;4932000;29;20123;-74
2023/12/17 07:59:26;;;;;;;19.58;9.90;;;;;;;;;;4917891;29;20054;-74
2023/12/17 08:01:52;;;;;;;22.00;11.02;;;;;;;;;;4909222;29;20110;-77
2023/12/17 08:04:18;;;;;;;22.85;12.23;;;;;;;;;;4907628;29;20496;-74
2023/12/17 08:06:44;;;;;;;24.83;13.20;;;;;;;;;;4936741;29;20086;-75
2023/12/17 08:09:11;;;;;;;30.42;13.85;;;;;;;;;;4937295;29;20097;-74
2023/12/17 08:11:37;;;;;;;24.63;15.52;;;;;;;;;;4935016;29;20038;-73
2023/12/17 08:14:03;;;;;;;27.25;16.27;;;;;;;;;;4936207;28;20051;-73
2023/12/17 08:16:30;;;;;;;32.83;16.13;;;;;;;;;;4936804;28;20058;-74
2023/12/17 08:18:56;;;;;;;28.95;16.15;;;;;;;;;;4933571;29;20055;-74
2023/12/17 08:21:22;;;;;;;20.42;13.38;;;;;;;;;;4903430;29;20036;-74
2023/12/17 08:23:48;;;;;;;26.38;15.23;;;;;;;;;;4888617;29;20392;-73
2023/12/17 08:26:14;;;;;;;28.73;14.50;;;;;;;;;;4903893;29;20048;-74
2023/12/17 08:28:40;;;;;;;20.60;13.82;;;;;;;;;;4919583;29;20044;-80
2023/12/17 08:31:09;;;;;;;28.63;14.23;;;;;;;;;;4904066;29;20044;-80
2023/12/17 08:33:36;;;;;;;29.90;16.05;;;;;;;;;;4903937;29;20075;-80
2023/12/17 08:36:02;;;;;;;25.75;14.30;;;;;;;;;;4919260;29;20095;-80
2023/12/17 08:38:28;;;;;;;26.13;13.52;;;;;;;;;;4903684;29;20081;-80
2023/12/17 08:40:54;;;;;;;20.65;12.32;;;;;;;;;;4903597;29;20046;-79
2023/12/17 08:43:20;;;;;;;25.98;11.15;;;;;;;;;;4919229;29;20087;-80
2023/12/17 08:45:46;;;;;;;22.95;11.10;;;;;;;;;;4919528;29;20062;-80
2023/12/17 08:48:13;;;;;;;24.65;12.43;;;;;;;;;;4919159;29;20052;-80
2023/12/17 08:50:39;;;;;;;18.80;10.63;;;;;;;;;;4903642;29;20048;-79
2023/12/17 08:53:05;;;;;;;22.75;11.30;;;;;;;;;;4903537;29;20135;-80
2023/12/17 08:55:31;;;;;;;21.17;11.15;;;;;;;;;;4919119;29;20075;-79
2023/12/17 08:57:57;;;;;;;22.40;10.60;;;;;;;;;;4903603;29;20040;-80
2023/12/17 09:00:23;;;;;;;20.08;9.82;;;;;;;;;;4903382;29;20048;-80
2023/12/17 09:02:49;;;;;;;21.35;9.30;;;;;;;;;;4903462;29;20122;-80
2023/12/17 09:05:15;;;;;;;24.92;9.05;;;;;;;;;;4903287;29;20100;-80
2023/12/17 09:07:41;;;;;;;20.98;8.63;;;;;;;;;;4919167;29;20055;-80
2023/12/17 09:10:08;;;;;;;21.60;8.32;;;;;;;;;;4910218;29;20043;-80
2023/12/17 09:12:34;;;;;;;23.70;7.75;;;;;;;;;;4937438;29;20128;-80
2023/12/17 09:15:00;;;;;;;27.88;8.70;;;;;;;;;;4919124;29;20050;-80
2023/12/17 09:17:26;;;;;;;22.45;7.93;;;;;;;;;;4918759;29;20135;-80
2023/12/17 09:19:53;;;;;;;22.85;7.50;;;;;;;;;;4903239;29;20036;-80
2023/12/17 09:22:19;;;;;;;19.42;7.82;;;;;;;;;;4903014;29;20065;-79
2023/12/17 09:24:45;;;;;;;32.35;9.13;;;;;;;;;;4918738;29;20036;-80
2023/12/17 09:27:11;;;;;;;24.98;8.85;;;;;;;;;;4903168;29;20392;-80
2023/12/17 09:29:37;;;;;;;21.48;7.20;;;;;;;;;;4918750;29;20040;-78
2023/12/17 09:32:03;;;;;;;25.75;8.48;;;;;;;;;;4918925;29;20047;-79
2023/12/17 09:34:30;;;;;;;25.17;8.32;;;;;;;;;;4902989;29;20047;-79
2023/12/17 09:36:56;;;;;;;21.80;8.40;;;;;;;;;;4903145;29;20040;-79
2023/12/17 09:39:22;;;;;;;25.13;9.10;;;;;;;;;;4918648;29;20050;-80
2023/12/17 09:41:48;;;;;;;28.20;8.95;;;;;;;;;;4902992;29;20043;-80
2023/12/17 09:44:14;;;;;;;27.73;8.40;;;;;;;;;;4887420;29;20043;-80
2023/12/17 09:46:40;;;;;;;24.95;9.45;;;;;;;;;;4918887;29;20526;-80
2023/12/17 09:49:06;;;;;;;27.90;9.93;;;;;;;;;;4918567;29;20126;-80
2023/12/17 09:51:36;;;;;;;26.17;8.70;;;;;;;;;;4918545;29;20040;-80
2023/12/17 09:54:04;;;;;;;24.25;9.35;;;;;;;;;;4922510;29;20063;-79
2023/12/17 09:56:30;;;;;;;22.70;9.20;;;;;;;;;;4917834;29;20048;-80
2023/12/17 09:58:56;;;;;;;26.75;8.95;;;;;;;;;;4937221;29;20047;-78
2023/12/17 10:01:22;;;;;;;26.30;9.25;;;;;;;;;;4921651;29;20075;-80
2023/12/17 10:03:49;;;;;;;23.83;8.80;;;;;;;;;;4906030;29;20059;-80
2023/12/17 10:06:19;;;;;;;25.95;8.15;;;;;;;;;;4937584;29;20047;-80
2023/12/17 10:08:45;;;;;;;26.95;8.50;;;;;;;;;;4937706;29;20051;-79
2023/12/17 10:11:11;;;;;;;27.20;8.90;;;;;;;;;;4937319;29;20051;-79
2023/12/17 10:13:37;;;;;;;26.48;8.35;;;;;;;;;;4921533;29;20047;-80
2023/12/17 10:16:03;;;;;;;20.63;7.75;;;;;;;;;;4906138;29;20158;-80
2023/12/17 10:18:29;;;;;;;22.70;7.82;;;;;;;;;;4937555;29;20054;-78
2023/12/17 10:20:56;;;;;;;22.00;8.70;;;;;;;;;;4923119;29;20043;-79
2023/12/17 10:23:22;;;;;;;23.95;8.30;;;;;;;;;;4937165;29;20557;-80
2023/12/17 10:25:58;;;;;;;26.23;9.07;;;;;;;;;;4937429;29;20361;-80
2023/12/17 10:28:25;;;;;;;30.30;9.63;;;;;;;;;;4937202;29;20043;-79
2023/12/17 10:30:51;;;;;;;28.73;10.15;;;;;;;;;;4937058;29;20047;-79
2023/12/17 10:33:21;;;;;;;21.65;10.25;;;;;;;;;;4921388;29;20492;-80
2023/12/17 10:35:47;;;;;;;37.70;10.75;;;;;;;;;;4921242;29;20039;-80
2023/12/17 10:38:15;;;;;;;24.20;10.07;;;;;;;;;;4937010;29;20054;-80
2023/12/17 10:40:42;;;;;;;21.83;10.23;;;;;;;;;;4937178;28;20062;-80
2023/12/17 10:43:09;;;;;;;28.60;10.63;;;;;;;;;;4910435;29;20444;-79
2023/12/17 10:45:35;;;;;;;26.10;10.98;;;;;;;;;;4941950;29;20046;-79
2023/12/17 10:48:02;;;;;;;31.17;11.48;;;;;;;;;;4926657;29;20043;-80
2023/12/17 10:50:28;;;;;;;27.67;11.32;;;;;;;;;;4914811;29;20490;-79
2023/12/17 10:52:54;;;;;;;28.02;10.38;;;;;;;;;;4910450;29;20047;-79
2023/12/17 10:55:22;;;;;;;29.92;11.07;;;;;;;;;;4941370;29;20106;-79
2023/12/17 10:57:55;;;;;;;25.30;10.45;;;;;;;;;;4925287;29;20051;-80
2023/12/17 11:00:24;;;;;;;32.35;10.18;;;;;;;;;;4940952;29;20039;-79
2023/12/17 11:02:52;;;;;;;23.35;10.27;;;;;;;;;;4941066;28;20043;-79
2023/12/17 11:05:18;;;;;;;24.25;9.57;;;;;;;;;;4921711;29;20056;-79
2023/12/17 11:07:44;;;;;;;26.10;9.88;;;;;;;;;;4940723;29;20452;-80
2023/12/17 11:10:11;;;;;;;30.42;10.32;;;;;;;;;;4937761;29;20044;-80
2023/12/17 11:12:37;;;;;;;24.10;9.18;;;;;;;;;;4937524;29;20039;-79
2023/12/17 11:15:03;;;;;;;27.58;9.68;;;;;;;;;;4921964;29;20055;-80
2023/12/17 11:17:30;;;;;;;30.63;8.85;;;;;;;;;;4921347;29;20051;-80
2023/12/17 11:19:57;;;;;;;23.13;9.35;;;;;;;;;;4937077;29;20040;-80
2023/12/17 11:22:24;;;;;;;28.85;9.75;;;;;;;;;;4937398;29;20126;-80
2023/12/17 11:24:54;;;;;;;22.70;8.95;;;;;;;;;;4937542;29;20076;-79
2023/12/17 11:27:22;;;;;;;22.58;8.68;;;;;;;;;;4937460;29;20090;-79
2023/12/17 11:29:52;;;;;;;24.33;11.02;;;;;;;;;;4937159;29;20242;-80
2023/12/17 11:32:24;;;;;;;27.00;9.48;;;;;;;;;;4937161;29;20039;-80
2023/12/17 11:34:51;;;;;;;30.17;11.07;;;;;;;;;;4936833;29;20050;-80
2023/12/17 11:37:20;;;;;;;22.08;9.57;;;;;;;;;;4921031;29;20063;-80
2023/12/17 11:39:48;;;;;;;25.67;10.15;;;;;;;;;;4921233;29;20384;-79
2023/12/17 11:42:14;;;;;;;30.35;10.23;;;;;;;;;;4921075;29;20044;-79
2023/12/17 11:44:47;;;;;;;25.20;10.15;;;;;;;;;;4920718;29;20059;-80
2023/12/17 11:47:14;;;;;;;23.40;9.40;;;;;;;;;;4920830;29;20051;-80
2023/12/17 11:49:40;;;;;;;28.20;9.70;;;;;;;;;;4936685;29;20043;-80
2023/12/17 11:52:21;;;;;;;26.45;10.63;;;;;;;;;;4936044;29;20050;-79
2023/12/17 11:54:48;;;;;;;25.60;10.07;;;;;;;;;;4919997;29;20074;-80
2023/12/17 11:57:23;;;;;;;24.55;10.55;;;;;;;;;;4936558;29;20126;-80
2023/12/17 11:59:50;;;;;;;18.48;10.15;;;;;;;;;;4936110;29;20531;-80
2023/12/17 12:02:21;;;;;;;21.52;10.13;;;;;;;;;;4936476;29;20050;-80
2023/12/17 12:04:48;;;;;;;24.15;11.50;;;;;;;;;;4920256;29;20135;-79
2023/12/17 12:07:18;;;;;;;20.63;10.13;;;;;;;;;;4936465;29;20106;-80
2023/12/17 12:09:45;;;;;;;23.08;9.93;;;;;;;;;;4920626;29;20039;-80
2023/12/17 12:12:21;;;;;;;25.70;11.30;;;;;;;;;;4936045;29;20039;-80
2023/12/17 12:14:49;;;;;;;21.98;10.45;;;;;;;;;;4935963;29;20083;-79
2023/12/17 12:17:33;;;;;;;21.75;9.25;;;;;;;;;;4936012;29;20496;-79
2023/12/17 12:19:59;;;;;;;16.95;9.20;;;;;;;;;;4943560;29;20048;-80
2023/12/17 12:22:29;;;;;;;20.42;10.40;;;;;;;;;;4944664;29;20039;-79
2023/12/17 12:24:56;;;;;;;23.23;10.93;;;;;;;;;;4928515;29;20079;-80
2023/12/17 12:27:22;;;;;;;26.35;9.30;;;;;;;;;;4935780;29;20046;-80
2023/12/17 12:29:48;;;;;;;20.25;9.68;;;;;;;;;;4935463;29;20046;-79
2023/12/17 12:32:30;;;;;;;21.35;9.77;;;;;;;;;;4919852;29;20091;-80
2023/12/17 12:34:57;;;;;;;23.02;9.77;;;;;;;;;;4935609;29;20050;-80
2023/12/17 12:37:39;;;;;;;24.77;10.57;;;;;;;;;;4920036;29;20040;-80
2023/12/17 12:40:06;;;;;;;24.43;10.03;;;;;;;;;;4919895;29;20087;-80
2023/12/17 12:42:33;;;;;;;15.38;9.43;;;;;;;;;;4935713;29;20043;-80
2023/12/17 12:44:59;;;;;;;19.30;8.73;;;;;;;;;;4935559;29;20074;-80
2023/12/17 12:47:25;;;;;;;18.17;8.90;;;;;;;;;;4919698;29;20039;-80
2023/12/17 12:49:51;;;;;;;17.65;9.30;;;;;;;;;;4935512;29;20088;-79
2023/12/17 12:52:24;;;;;;;18.60;8.32;;;;;;;;;;4903989;29;20044;-79
2023/12/17 12:54:50;;;;;;;;;;;;;;;;;;4919930;29;20035;-79
2023/12/17 12:57:17;;;;;;;23.75;8.40;;;;;;;;;;4919457;29;20002;-80
2023/12/17 12:59:44;;;;;;;18.05;9.25;;;;;;;;;;4935208;29;20043;-80
2023/12/17 13:02:10;;;;;;;23.73;9.38;;;;;;;;;;4935322;29;20440;-80
2023/12/17 13:04:36;;;;;;;20.75;9.32;;;;;;;;;;4934475;29;20118;-80
2023/12/17 13:07:02;;;;;;;19.55;9.45;;;;;;;;;;4935353;29;20048;-80
2023/12/17 13:09:28;;;;;;;18.38;9.80;;;;;;;;;;4903569;29;20134;-80
2023/12/17 13:11:55;;;;;;;17.50;9.38;;;;;;;;;;4919136;29;20071;-79
2023/12/17 13:14:21;;;;;;;19.40;8.93;;;;;;;;;;4911548;29;20039;-80
2023/12/17 13:16:50;;;;;;;16.98;10.55;;;;;;;;;;4919033;29;20050;-80
2023/12/17 13:19:16;;;;;;;22.02;12.05;;;;;;;;;;4919212;29;20048;-79
2023/12/17 13:21:42;;;;;;;18.83;11.30;;;;;;;;;;4934812;29;20075;-80
2023/12/17 13:24:08;;;;;;;18.48;10.77;;;;;;;;;;4934940;29;20051;-80
2023/12/17 13:26:34;;;;;;;15.07;10.63;;;;;;;;;;4934946;29;20047;-80
2023/12/17 13:29:00;;;;;;;19.27;11.43;;;;;;;;;;4919251;29;20094;-79
2023/12/17 13:31:26;;;;;;;16.20;11.00;;;;;;;;;;4935075;29;20054;-76
2023/12/17 13:33:52;;;;;;;17.30;10.10;;;;;;;;;;4923563;29;20050;-80
2023/12/17 13:36:20;;;;;;;18.30;10.10;;;;;;;;;;4934995;29;20184;-74
2023/12/17 13:38:46;;;;;;;16.63;9.65;;;;;;;;;;4934306;29;20437;-73
2023/12/17 13:41:12;;;;;;;18.08;9.75;;;;;;;;;;4934536;29;20086;-74
2023/12/17 13:43:38;;;;;;;18.20;9.77;;;;;;;;;;4934298;29;20044;-74
2023/12/17 13:46:06;;;;;;;17.10;10.35;;;;;;;;;;4934470;29;20496;-74
2023/12/17 13:48:32;;;;;;;19.63;11.07;;;;;;;;;;4918873;29;20094;-74
2023/12/17 13:50:58;;;;;;;18.42;10.70;;;;;;;;;;4934316;29;20496;-74
2023/12/17 13:53:24;;;;;;;22.42;12.27;;;;;;;;;;4934447;29;20556;-73
2023/12/17 13:55:50;;;;;;;22.15;11.55;;;;;;;;;;4934718;29;20440;-73
2023/12/17 13:58:16;;;;;;;19.15;11.63;;;;;;;;;;4933960;29;20047;-74
2023/12/17 14:00:42;;;;;;;18.52;11.00;;;;;;;;;;4918646;29;20154;-73
2023/12/17 14:03:08;;;;;;;23.35;12.95;;;;;;;;;;4934173;29;20043;-74
2023/12/17 14:05:34;;;;;;;19.50;11.63;;;;;;;;;;4934096;29;20408;-74
2023/12/17 14:08:00;;;;;;;17.23;11.23;;;;;;;;;;4934089;29;20090;-74
2023/12/17 14:10:27;;;;;;;18.23;11.38;;;;;;;;;;4918159;29;20047;-74
2023/12/17 14:12:53;;;;;;;19.13;10.98;;;;;;;;;;4934375;29;20050;-74
2023/12/17 14:15:23;;;;;;;18.05;10.80;;;;;;;;;;4918344;29;20047;-73
2023/12/17 14:17:49;;;;;;;20.13;10.75;;;;;;;;;;4936980;29;20072;-74
2023/12/17 14:20:16;;;;;;;21.20;10.82;;;;;;;;;;4921967;29;20486;-73
2023/12/17 14:22:42;;;;;;;19.33;11.27;;;;;;;;;;4937923;29;21339;-74
2023/12/17 14:25:09;;;;;;;19.80;10.70;;;;;;;;;;4926209;29;20558;-74